Time;durP1;ratioP1;P1;durP2;ratioP2;P2;SDS_P1;SDS_P2;PMS_P1;PMS_P2;Temp;Humidity;BMP_temperature;BMP_pressure;BME280_temperature;BME280_humidity;BME280_pressure;Samples;Min_cycle;Max_cycle;Signal;HPM_P1;HPM_P2
2022/06/09 00:01:39;;;;;;;14.93;7.30;;;15.20;99.90;;;;;;5091173;28;20083;-77
2022/06/09 00:04:26;;;;;;;12.80;7.32;;;15.30;99.90;;;;;;5108106;28;20131;-78
2022/06/09 00:07:00;;;;;;;15.98;7.72;;;15.30;99.90;;;;;;5087341;28;20048;-78
2022/06/09 00:09:34;;;;;;;12.52;6.57;;;15.30;99.90;;;;;;5089713;28;20049;-77
2022/06/09 00:12:00;;;;;;;11.80;5.63;;;15.30;99.90;;;;;;5091174;28;20055;-77
2022/06/09 00:14:27;;;;;;;19.60;8.30;;;15.30;99.90;;;;;;5091424;28;20048;-77
2022/06/09 00:16:52;;;;;;;12.20;6.32;;;15.30;99.90;;;;;;5089225;28;20043;-77
2022/06/09 00:19:18;;;;;;;19.25;6.45;;;15.30;99.90;;;;;;5091050;28;20049;-77
2022/06/09 00:21:45;;;;;;;16.77;6.38;;;15.30;99.90;;;;;;5106115;28;20058;-77
2022/06/09 00:24:11;;;;;;;14.98;7.45;;;15.30;99.90;;;;;;5088270;28;20104;-78
2022/06/09 00:26:37;;;;;;;12.45;6.93;;;15.30;99.90;;;;;;5090668;28;20048;-77
2022/06/09 00:29:05;;;;;;;15.95;7.85;;;15.20;99.90;;;;;;5089603;28;20044;-78
2022/06/09 00:31:30;;;;;;;13.70;6.10;;;15.20;99.90;;;;;;5089996;28;20044;-77
2022/06/09 00:33:56;;;;;;;20.77;7.47;;;15.20;99.90;;;;;;5090888;28;20044;-77
2022/06/09 00:36:22;;;;;;;11.93;7.03;;;15.20;99.90;;;;;;5088780;28;20041;-78
2022/06/09 00:38:47;;;;;;;14.30;6.88;;;15.20;99.90;;;;;;5089807;28;20048;-77
2022/06/09 00:41:13;;;;;;;12.80;6.97;;;15.20;99.90;;;;;;5089469;28;20087;-76
2022/06/09 00:43:44;;;;;;;18.63;8.50;;;15.20;99.90;;;;;;5090616;28;20075;-77
2022/06/09 00:46:23;;;;;;;16.00;7.22;;;15.20;99.90;;;;;;5090163;28;20052;-77
2022/06/09 00:48:57;;;;;;;15.55;10.40;;;15.20;99.90;;;;;;5090747;28;20055;-77
2022/06/09 00:51:45;;;;;;;16.52;7.20;;;15.20;99.90;;;;;;5090426;28;20073;-77
2022/06/09 00:54:19;;;;;;;16.42;7.88;;;15.20;99.90;;;;;;5090346;28;20105;-77
2022/06/09 00:57:09;;;;;;;15.40;7.85;;;15.20;99.90;;;;;;5087463;28;20571;-77
2022/06/09 00:59:37;;;;;;;11.88;5.65;;;15.20;99.90;;;;;;5088798;28;20040;-77
2022/06/09 01:02:06;;;;;;;13.50;9.00;;;15.20;99.90;;;;;;5086963;28;20048;-77
2022/06/09 01:04:33;;;;;;;19.45;8.38;;;15.30;99.90;;;;;;5090261;28;20040;-78
2022/06/09 01:07:10;;;;;;;13.27;7.03;;;15.20;99.90;;;;;;5103431;28;20104;-77
2022/06/09 01:09:36;;;;;;;11.27;7.32;;;15.30;99.90;;;;;;5089803;28;20095;-78
2022/06/09 01:12:21;;;;;;;15.73;7.68;;;15.20;99.90;;;;;;5089338;28;20044;-77
2022/06/09 01:14:47;;;;;;;16.08;7.25;;;15.20;99.90;;;;;;5089333;28;20096;-77
2022/06/09 01:17:25;;;;;;;17.02;8.82;;;15.20;99.90;;;;;;5090002;28;20044;-78
2022/06/09 01:20:07;;;;;;;15.20;7.60;;;15.20;99.90;;;;;;5106227;28;20035;-78
2022/06/09 01:22:58;;;;;;;14.88;8.13;;;15.20;99.90;;;;;;5089203;28;20048;-76
2022/06/09 01:25:32;;;;;;;11.88;6.72;;;15.20;99.90;;;;;;5089762;28;20048;-77
2022/06/09 01:28:21;;;;;;;13.48;7.63;;;15.20;99.90;;;;;;5088913;28;20083;-76
2022/06/09 01:31:27;;;;;;;12.82;7.78;;;15.20;99.90;;;;;;5089404;28;20086;-78
2022/06/09 01:34:02;;;;;;;19.90;9.05;;;15.10;99.90;;;;;;5069745;28;20052;-78
2022/06/09 01:36:44;;;;;;;17.52;7.60;;;15.20;99.90;;;;;;5089450;28;20044;-76
2022/06/09 01:39:09;;;;;;;22.80;10.80;;;15.10;99.90;;;;;;5089376;28;20059;-77
2022/06/09 01:41:36;;;;;;;20.83;10.15;;;15.10;99.90;;;;;;5089213;28;20044;-78
2022/06/09 01:44:03;;;;;;;13.35;7.00;;;15.10;99.90;;;;;;5086863;28;20049;-77
2022/06/09 01:46:34;;;;;;;19.35;9.02;;;15.10;99.90;;;;;;5081907;28;20097;-77
2022/06/09 01:49:17;;;;;;;25.15;10.95;;;15.10;99.90;;;;;;5076542;28;20165;-77
2022/06/09 01:51:45;;;;;;;18.55;9.95;;;15.10;99.90;;;;;;5075368;28;20045;-77
2022/06/09 01:54:25;;;;;;;14.30;10.32;;;15.10;99.90;;;;;;5077503;28;20070;-78
2022/06/09 01:57:10;;;;;;;19.45;10.73;;;15.00;99.90;;;;;;5074672;28;20094;-78
2022/06/09 01:59:40;;;;;;;19.75;10.05;;;15.00;99.90;;;;;;5075408;28;20040;-78
2022/06/09 02:02:19;;;;;;;21.02;10.18;;;15.00;99.90;;;;;;5074660;28;20049;-78
2022/06/09 02:04:53;;;;;;;16.63;8.63;;;15.00;99.90;;;;;;5074277;28;20048;-77
2022/06/09 02:07:21;;;;;;;14.77;8.73;;;14.90;99.90;;;;;;5073985;28;20048;-78
2022/06/09 02:09:47;;;;;;;20.10;9.88;;;15.00;99.90;;;;;;5073549;28;20041;-78
2022/06/09 02:12:17;;;;;;;15.15;8.50;;;14.90;99.90;;;;;;5075982;28;20502;-77
2022/06/09 02:14:50;;;;;;;21.27;9.75;;;14.90;99.90;;;;;;5077353;28;20048;-78
2022/06/09 02:17:16;;;;;;;14.48;8.20;;;14.90;99.90;;;;;;5077604;28;20087;-77
2022/06/09 02:19:43;;;;;;;13.68;7.28;;;14.80;99.90;;;;;;5076278;28;20047;-78
2022/06/09 02:22:11;;;;;;;23.17;7.72;;;14.80;99.90;;;;;;5076877;28;20503;-78
2022/06/09 02:24:37;;;;;;;14.55;8.50;;;14.80;99.90;;;;;;5077037;28;20052;-77
2022/06/09 02:27:03;;;;;;;16.50;8.23;;;14.80;99.90;;;;;;5092212;28;20498;-78
2022/06/09 02:29:29;;;;;;;12.98;8.25;;;14.80;99.90;;;;;;5077242;28;20041;-77
2022/06/09 02:31:55;;;;;;;19.40;9.55;;;14.80;99.90;;;;;;5075918;28;20036;-78
2022/06/09 02:34:21;;;;;;;18.75;8.32;;;14.80;99.90;;;;;;5075863;28;20052;-78
2022/06/09 02:36:47;;;;;;;17.75;9.20;;;14.80;99.90;;;;;;5075620;28;20120;-79
2022/06/09 02:39:12;;;;;;;24.95;9.35;;;14.80;99.90;;;;;;5076579;28;20086;-77
2022/06/09 02:41:38;;;;;;;23.38;8.65;;;14.80;99.90;;;;;;5076981;28;20044;-78
2022/06/09 02:44:04;;;;;;;17.17;8.30;;;14.80;99.90;;;;;;5076351;28;20043;-78
2022/06/09 02:46:31;;;;;;;19.95;8.90;;;14.80;99.90;;;;;;5076275;28;20055;-78
2022/06/09 02:48:58;;;;;;;22.13;10.75;;;14.80;99.90;;;;;;5093035;28;20052;-76
2022/06/09 02:51:34;;;;;;;22.83;10.55;;;14.80;99.90;;;;;;5076219;28;20049;-77
2022/06/09 02:54:07;;;;;;;15.20;8.48;;;14.80;99.90;;;;;;5074944;28;20053;-78
2022/06/09 02:56:33;;;;;;;34.25;10.63;;;14.80;99.90;;;;;;5092201;28;20044;-78
2022/06/09 02:58:58;;;;;;;20.83;10.05;;;14.80;99.90;;;;;;5075875;28;20494;-79
2022/06/09 03:01:25;;;;;;;18.38;10.10;;;14.80;99.90;;;;;;5076314;28;20048;-79
2022/06/09 03:03:51;;;;;;;21.45;10.35;;;14.80;99.90;;;;;;5076039;28;20056;-79
2022/06/09 03:06:17;;;;;;;17.55;9.45;;;14.80;99.90;;;;;;5074998;28;20049;-77
2022/06/09 03:08:44;;;;;;;18.45;10.23;;;14.80;99.90;;;;;;5075525;28;20442;-78
2022/06/09 03:11:12;;;;;;;23.80;10.32;;;14.80;99.90;;;;;;5074967;28;20432;-78
2022/06/09 03:13:42;;;;;;;18.38;11.00;;;14.70;99.90;;;;;;5075910;28;20040;-78
2022/06/09 03:16:11;;;;;;;19.67;11.23;;;14.70;99.90;;;;;;5075178;28;20095;-76
2022/06/09 03:18:36;;;;;;;22.48;9.13;;;14.80;99.90;;;;;;5075898;28;20062;-78
2022/06/09 03:21:03;;;;;;;21.98;11.52;;;14.80;99.90;;;;;;5076395;28;20403;-77
2022/06/09 03:23:29;;;;;;;21.33;10.05;;;14.80;99.90;;;;;;5074678;28;20064;-78
2022/06/09 03:25:55;;;;;;;16.30;9.40;;;14.80;99.90;;;;;;5075718;28;20114;-78
2022/06/09 03:28:21;;;;;;;23.15;11.73;;;14.80;99.90;;;;;;5076038;28;20110;-79
2022/06/09 03:30:47;;;;;;;21.65;9.95;;;14.70;99.90;;;;;;5075496;28;20460;-78
2022/06/09 03:33:12;;;;;;;20.38;10.80;;;14.80;99.90;;;;;;5075518;28;20485;-77
2022/06/09 03:35:38;;;;;;;32.20;13.50;;;14.80;99.90;;;;;;5076028;28;20048;-79
2022/06/09 03:38:04;;;;;;;15.10;9.57;;;14.70;99.90;;;;;;5075109;28;20345;-79
2022/06/09 03:40:31;;;;;;;19.52;11.25;;;14.70;99.90;;;;;;5075386;28;20032;-78
2022/06/09 03:43:02;;;;;;;19.27;10.98;;;14.80;99.90;;;;;;5075793;28;20044;-77
2022/06/09 03:45:28;;;;;;;14.10;9.55;;;14.80;99.90;;;;;;5075341;28;20515;-78
2022/06/09 03:47:54;;;;;;;18.27;10.43;;;14.80;99.90;;;;;;5090632;28;20048;-79
2022/06/09 03:50:23;;;;;;;17.48;10.95;;;14.80;99.90;;;;;;5075054;28;20044;-78
2022/06/09 03:52:49;;;;;;;20.75;11.35;;;14.80;99.90;;;;;;5074809;28;20048;-78
2022/06/09 03:55:16;;;;;;;20.48;11.40;;;14.80;99.90;;;;;;5073887;28;20044;-79
2022/06/09 03:57:42;;;;;;;16.73;10.10;;;14.80;99.90;;;;;;5075481;28;20041;-77
2022/06/09 04:00:13;;;;;;;15.10;10.30;;;14.80;99.90;;;;;;5073898;28;20049;-78
2022/06/09 04:02:39;;;;;;;15.15;8.77;;;14.90;99.90;;;;;;5074819;28;20052;-78
2022/06/09 04:05:05;;;;;;;20.73;10.73;;;14.90;99.90;;;;;;5075184;28;20044;-79
2022/06/09 04:07:31;;;;;;;19.17;10.80;;;14.90;99.90;;;;;;5074709;28;20048;-79
2022/06/09 04:09:57;;;;;;;19.30;12.43;;;14.90;99.90;;;;;;5073917;28;20499;-77
2022/06/09 04:12:24;;;;;;;24.75;10.90;;;14.90;99.90;;;;;;5074648;28;20052;-79
2022/06/09 04:14:51;;;;;;;16.30;9.55;;;14.90;99.90;;;;;;5074635;28;20052;-80
2022/06/09 04:17:17;;;;;;;24.63;12.80;;;14.90;99.90;;;;;;5074835;28;20051;-78
2022/06/09 04:19:43;;;;;;;13.00;8.35;;;14.90;99.90;;;;;;5074406;28;20045;-79
2022/06/09 04:22:09;;;;;;;22.42;11.35;;;14.90;99.90;;;;;;5074616;28;20114;-79
2022/06/09 04:24:34;;;;;;;14.57;8.43;;;15.00;99.90;;;;;;5074248;28;20540;-79
2022/06/09 04:27:01;;;;;;;19.17;8.73;;;15.00;99.90;;;;;;5073025;28;20415;-80
2022/06/09 04:29:27;;;;;;;16.55;8.77;;;15.00;99.90;;;;;;5074316;28;20071;-79
2022/06/09 04:31:53;;;;;;;13.73;8.82;;;15.00;99.90;;;;;;5072883;28;20040;-79
2022/06/09 04:34:18;;;;;;;13.70;9.55;;;15.00;99.90;;;;;;5074264;28;20060;-76
2022/06/09 04:36:45;;;;;;;16.90;8.82;;;15.00;99.90;;;;;;5074005;28;20040;-79
2022/06/09 04:39:11;;;;;;;18.83;9.95;;;15.00;99.90;;;;;;5073728;28;20102;-79
2022/06/09 04:41:37;;;;;;;16.23;8.50;;;15.00;99.90;;;;;;5074183;28;20045;-77
2022/06/09 04:44:03;;;;;;;11.40;8.23;;;15.00;99.90;;;;;;5074015;28;20061;-77
2022/06/09 04:46:30;;;;;;;14.18;9.00;;;15.00;99.90;;;;;;5074677;28;20076;-79
2022/06/09 04:48:56;;;;;;;15.27;9.13;;;15.00;99.90;;;;;;5072597;28;20048;-80
2022/06/09 04:51:23;;;;;;;15.98;9.45;;;15.10;99.90;;;;;;5073841;28;20044;-80
2022/06/09 04:53:50;;;;;;;13.25;9.38;;;15.00;99.90;;;;;;5073015;28;20053;-79
2022/06/09 04:56:18;;;;;;;17.10;7.90;;;15.10;99.90;;;;;;5073599;28;20044;-78
2022/06/09 04:58:44;;;;;;;13.48;9.15;;;15.10;99.90;;;;;;5072855;28;20452;-77
2022/06/09 05:01:22;;;;;;;15.05;8.50;;;15.10;99.90;;;;;;5089480;28;20522;-78
2022/06/09 05:03:49;;;;;;;16.20;10.48;;;15.10;99.90;;;;;;5073366;28;20048;-77
2022/06/09 05:06:19;;;;;;;21.73;9.95;;;15.10;99.90;;;;;;5073300;28;20044;-78
2022/06/09 05:08:47;;;;;;;11.18;7.88;;;15.10;99.90;;;;;;5072738;28;20049;-79
2022/06/09 05:11:13;;;;;;;13.23;8.32;;;15.10;99.90;;;;;;5073062;28;20076;-77
2022/06/09 05:13:38;;;;;;;13.82;9.43;;;15.20;99.90;;;;;;5088830;28;20088;-78
2022/06/09 05:16:05;;;;;;;17.08;9.77;;;15.20;99.90;;;;;;5071751;28;20037;-78
2022/06/09 05:18:32;;;;;;;15.95;10.48;;;15.20;99.90;;;;;;5073141;28;20541;-78
2022/06/09 05:20:59;;;;;;;17.48;9.50;;;15.20;99.90;;;;;;5072246;28;20495;-78
2022/06/09 05:23:27;;;;;;;13.70;9.20;;;15.20;99.90;;;;;;5072799;28;20057;-78
2022/06/09 05:25:55;;;;;;;15.95;11.00;;;15.20;99.90;;;;;;5072589;28;20486;-79
2022/06/09 05:28:22;;;;;;;13.15;10.18;;;15.20;99.90;;;;;;5073452;28;20124;-78
2022/06/09 05:30:48;;;;;;;17.40;10.18;;;15.20;99.90;;;;;;5072663;28;20522;-77
2022/06/09 05:33:14;;;;;;;16.85;11.40;;;15.20;99.90;;;;;;5073199;28;20044;-78
2022/06/09 05:35:40;;;;;;;16.10;10.63;;;15.20;99.90;;;;;;5072931;28;20055;-77
2022/06/09 05:46:20;;;;;;;17.85;11.60;;;15.40;99.90;;;;;;5071895;28;20408;-79
2022/06/09 05:48:46;;;;;;;12.65;9.63;;;15.40;99.90;;;;;;5072845;28;20044;-76
2022/06/09 05:51:14;;;;;;;16.30;9.32;;;15.50;99.90;;;;;;5072865;28;20044;-77
2022/06/09 05:53:41;;;;;;;15.48;11.45;;;15.60;99.90;;;;;;5073806;28;20079;-77
2022/06/09 05:56:07;;;;;;;13.63;10.57;;;15.60;99.90;;;;;;5072880;28;20048;-78
2022/06/09 05:58:35;;;;;;;13.23;10.40;;;15.70;99.90;;;;;;5073121;28;20056;-76
2022/06/09 06:01:05;;;;;;;17.02;12.65;;;15.70;99.90;;;;;;5073490;28;20044;-78
2022/06/09 06:03:31;;;;;;;19.02;12.70;;;15.80;99.90;;;;;;5072647;28;20048;-78
2022/06/09 06:08:41;;;;;;;20.13;11.38;;;15.90;99.90;;;;;;5073020;28;20068;-79
2022/06/09 06:11:07;;;;;;;20.90;13.25;;;16.20;99.90;;;;;;5072698;28;20491;-77
2022/06/09 06:13:33;;;;;;;18.98;12.45;;;15.90;99.90;;;;;;5072480;28;20075;-77
2022/06/09 06:15:59;;;;;;;19.30;12.48;;;15.90;99.90;;;;;;5073044;28;20056;-76
2022/06/09 06:18:26;;;;;;;21.02;13.07;;;15.80;99.90;;;;;;5072591;28;20457;-77
2022/06/09 06:20:53;;;;;;;19.08;11.88;;;15.60;99.90;;;;;;5072530;28;20473;-80
2022/06/09 06:23:19;;;;;;;18.45;12.18;;;15.60;99.90;;;;;;5071820;28;20053;-80
2022/06/09 06:25:44;;;;;;;21.45;13.27;;;15.70;99.90;;;;;;5072088;28;20110;-80
2022/06/09 06:28:10;;;;;;;18.75;12.35;;;15.70;99.90;;;;;;5072378;28;20122;-80
2022/06/09 06:30:36;;;;;;;16.90;11.00;;;15.80;99.90;;;;;;5071151;28;20037;-80
2022/06/09 06:33:02;;;;;;;21.23;13.10;;;15.90;99.90;;;;;;5054183;28;20528;-79
2022/06/09 06:35:28;;;;;;;16.38;11.55;;;16.00;99.90;;;;;;5072503;28;20070;-78
2022/06/09 06:37:53;;;;;;;20.80;13.13;;;16.10;99.90;;;;;;5072813;28;20172;-78
2022/06/09 06:40:19;;;;;;;22.45;14.70;;;16.10;99.90;;;;;;5071315;28;20048;-80
2022/06/09 06:42:44;;;;;;;16.42;11.82;;;16.40;99.90;;;;;;5072268;28;20053;-80
2022/06/09 06:45:12;;;;;;;18.83;13.32;;;16.50;99.90;;;;;;5072352;28;20048;-80
2022/06/09 06:47:41;;;;;;;16.73;11.55;;;16.60;99.90;;;;;;5072423;28;20111;-77
2022/06/09 06:50:09;;;;;;;21.02;12.90;;;17.00;99.90;;;;;;5072306;28;20360;-80
2022/06/09 06:52:34;;;;;;;23.88;14.85;;;17.30;99.90;;;;;;5070780;28;20496;-81
2022/06/09 06:55:00;;;;;;;17.90;11.52;;;17.80;99.90;;;;;;5071261;28;20041;-80
2022/06/09 06:57:26;;;;;;;17.02;11.18;;;18.20;99.90;;;;;;5070947;28;20066;-80
2022/06/09 06:59:52;;;;;;;16.20;11.65;;;18.40;99.90;;;;;;5075470;28;20524;-79
2022/06/09 07:02:18;;;;;;;17.35;13.15;;;18.50;99.90;;;;;;5074492;28;20507;-80
2022/06/09 07:04:44;;;;;;;16.20;11.70;;;19.20;99.90;;;;;;5075749;28;20478;-79
2022/06/09 07:07:11;;;;;;;19.92;13.13;;;19.80;99.90;;;;;;5075520;28;20495;-81
2022/06/09 07:09:37;;;;;;;16.88;11.57;;;19.70;99.90;;;;;;5075789;28;20044;-80
2022/06/09 07:12:04;;;;;;;13.77;10.63;;;19.80;99.90;;;;;;5075416;28;20052;-78
2022/06/09 07:14:30;;;;;;;16.20;10.85;;;19.90;99.90;;;;;;5074535;28;20518;-79
2022/06/09 07:16:55;;;;;;;16.50;12.80;;;19.40;99.90;;;;;;5074674;28;20128;-81
2022/06/09 07:19:21;;;;;;;15.80;11.05;;;19.20;99.90;;;;;;5075491;28;20083;-82
2022/06/09 07:21:47;;;;;;;16.83;10.48;;;19.30;99.90;;;;;;5075823;28;20040;-80
2022/06/09 07:24:13;;;;;;;12.35;9.43;;;19.40;99.90;;;;;;5075543;28;20109;-80
2022/06/09 07:26:39;;;;;;;12.65;9.68;;;20.20;99.90;;;;;;5075283;28;20213;-80
2022/06/09 07:29:04;;;;;;;12.15;8.35;;;21.30;99.90;;;;;;5074217;28;20043;-82
2022/06/09 07:31:30;;;;;;;15.75;9.68;;;22.00;99.90;;;;;;5074900;28;20097;-82
2022/06/09 07:33:56;;;;;;;9.73;7.95;;;22.10;99.90;;;;;;5075020;28;20063;-80
2022/06/09 07:36:23;;;;;;;8.85;7.38;;;22.50;99.90;;;;;;5074453;28;20137;-77
2022/06/09 07:38:49;;;;;;;10.43;7.30;;;23.20;99.90;;;;;;5075459;28;20074;-77
2022/06/09 07:41:16;;;;;;;9.93;6.60;;;23.60;99.90;;;;;;5075261;28;20437;-82
2022/06/09 07:43:41;;;;;;;8.65;7.70;;;22.90;99.90;;;;;;5073477;28;20098;-81
2022/06/09 07:46:07;;;;;;;7.75;6.05;;;22.10;99.90;;;;;;5074177;28;20447;-81
2022/06/09 07:48:33;;;;;;;10.85;9.45;;;21.90;99.90;;;;;;5075305;28;20128;-79
2022/06/09 07:50:59;;;;;;;6.88;5.63;;;22.20;99.90;;;;;;5056772;28;20049;-80
2022/06/09 07:53:25;;;;;;;8.77;5.05;;;22.80;99.90;;;;;;5074701;28;20052;-81
2022/06/09 07:55:51;;;;;;;5.45;4.60;;;23.40;99.90;;;;;;5073581;28;20055;-80
2022/06/09 07:58:18;;;;;;;7.32;4.30;;;23.10;99.90;;;;;;5074565;28;20072;-79
2022/06/09 08:00:45;;;;;;;8.68;4.55;;;23.30;99.90;;;;;;5073236;28;20055;-81
2022/06/09 08:03:18;;;;;;;6.40;4.32;;;23.60;99.90;;;;;;5074385;28;20456;-80
2022/06/09 08:05:43;;;;;;;8.30;4.03;;;23.60;99.90;;;;;;5074083;28;20056;-82
2022/06/09 08:08:09;;;;;;;5.68;4.28;;;23.80;99.90;;;;;;5089695;28;20056;-79
2022/06/09 08:10:36;;;;;;;3.65;3.20;;;23.90;99.90;;;;;;5073903;28;20106;-81
2022/06/09 08:13:03;;;;;;;4.93;2.85;;;24.20;99.90;;;;;;5074614;28;20123;-83
2022/06/09 08:15:30;;;;;;;5.50;3.35;;;24.00;99.90;;;;;;5074784;28;20060;-78
2022/06/09 08:17:57;;;;;;;7.10;3.17;;;24.50;99.90;;;;;;5074381;28;20048;-81
2022/06/09 08:20:26;;;;;;;19.23;12.90;;;24.90;99.90;;;;;;5074537;28;20092;-83
2022/06/09 08:22:52;;;;;;;5.70;3.83;;;25.00;99.90;;;;;;5073949;28;20119;-80
2022/06/09 08:25:21;;;;;;;4.40;3.50;;;24.80;99.90;;;;;;5074062;28;20053;-79
2022/06/09 08:27:47;;;;;;;3.85;2.72;;;24.70;99.90;;;;;;5074313;28;20059;-79
2022/06/09 08:30:15;;;;;;;3.20;2.30;;;24.30;99.90;;;;;;5073698;28;20040;-80
2022/06/09 08:32:41;;;;;;;4.10;2.42;;;24.60;99.90;;;;;;5073041;28;20053;-82
2022/06/09 08:35:11;;;;;;;3.05;2.00;;;24.50;99.90;;;;;;5073539;28;20136;-79
2022/06/09 08:37:37;;;;;;;4.20;1.98;;;24.70;99.90;;;;;;5074201;28;20048;-80
2022/06/09 08:40:05;;;;;;;2.78;2.10;;;24.70;99.90;;;;;;5073779;28;20049;-79
2022/06/09 08:42:58;;;;;;;2.20;1.90;;;25.20;99.90;;;;;;5073769;28;20485;-81
2022/06/09 08:45:35;;;;;;;3.13;1.88;;;25.70;99.90;;;;;;5073902;28;20084;-78
2022/06/09 08:48:03;;;;;;;1.63;1.42;;;25.30;94.50;;;;;;5073595;28;20127;-78
2022/06/09 08:50:34;;;;;;;4.63;1.98;;;25.60;99.90;;;;;;5089275;28;20108;-78
2022/06/09 08:53:15;;;;;;;2.40;1.65;;;25.30;99.00;;;;;;5073280;28;20044;-81
2022/06/09 08:55:51;;;;;;;4.15;1.73;;;24.90;95.80;;;;;;5072776;28;20444;-83
2022/06/09 08:58:38;;;;;;;1.55;1.45;;;24.80;94.90;;;;;;5073664;28;20119;-81
2022/06/09 09:01:09;;;;;;;3.83;1.92;;;25.20;94.60;;;;;;5073482;28;20107;-78
2022/06/09 09:03:56;;;;;;;3.17;1.92;;;24.70;95.00;;;;;;5072884;28;20535;-80
2022/06/09 09:06:35;;;;;;;2.60;1.77;;;24.50;98.60;;;;;;5072859;28;20056;-84
2022/06/09 09:09:22;;;;;;;2.28;1.33;;;24.30;97.70;;;;;;5073024;28;20082;-82
2022/06/09 09:12:07;;;;;;;3.60;1.40;;;23.50;95.60;;;;;;5073024;28;20040;-79
2022/06/09 09:14:52;;;;;;;3.58;1.20;;;24.10;98.00;;;;;;5072422;28;20068;-78
2022/06/09 09:17:21;;;;;;;1.67;1.27;;;24.70;95.10;;;;;;5072521;28;20044;-81
2022/06/09 09:19:53;;;;;;;4.63;1.17;;;25.10;99.50;;;;;;5070826;28;20047;-79
2022/06/09 09:22:24;;;;;;;1.45;1.35;;;24.70;93.70;;;;;;5071704;28;20048;-82
2022/06/09 09:25:39;;;;;;;2.90;1.00;;;24.80;98.90;;;;;;5072357;28;20048;-79
2022/06/09 09:28:18;;;;;;;2.72;1.23;;;24.90;93.10;;;;;;5058919;28;20056;-77
2022/06/09 09:30:59;;;;;;;1.35;0.85;;;24.90;95.60;;;;;;5072695;28;20097;-78
2022/06/09 09:33:27;;;;;;;9.07;7.35;;;25.30;94.50;;;;;;5071585;28;20408;-76
2022/06/09 09:36:06;;;;;;;3.35;1.50;;;25.40;97.80;;;;;;5072114;28;20476;-80
2022/06/09 09:38:42;;;;;;;2.28;1.55;;;25.70;94.60;;;;;;5072413;28;20558;-79
2022/06/09 09:41:23;;;;;;;4.88;1.60;;;25.90;93.70;;;;;;5070810;28;20043;-77
2022/06/09 09:43:49;;;;;;;2.80;1.42;;;26.00;96.20;;;;;;5071278;28;20045;-81
2022/06/09 09:46:33;;;;;;;5.47;1.67;;;25.10;96.30;;;;;;5072370;28;20043;-82
2022/06/09 09:49:15;;;;;;;4.32;1.45;;;24.70;94.50;;;;;;5072416;28;20091;-77
2022/06/09 09:51:42;;;;;;;4.38;1.45;;;24.30;97.90;;;;;;5071242;28;20067;-81
2022/06/09 09:54:19;;;;;;;5.25;1.60;;;24.30;97.70;;;;;;5072328;28;20044;-78
2022/06/09 09:56:46;;;;;;;1.67;0.98;;;24.30;95.90;;;;;;5072828;28;20124;-81
2022/06/09 09:59:24;;;;;;;1.85;1.10;;;24.40;97.40;;;;;;5072284;28;20046;-83
2022/06/09 10:10:26;;;;;;;2.40;1.45;;;24.60;95.00;;;;;;5072240;28;20049;-80
2022/06/09 10:12:57;;;;;;;4.25;1.40;;;24.00;97.10;;;;;;5072358;28;20044;-82
2022/06/09 10:15:26;;;;;;;8.30;2.03;;;23.40;96.80;;;;;;5072217;28;20044;-81
2022/06/09 10:18:01;;;;;;;2.33;1.30;;;23.20;97.30;;;;;;5072098;28;20098;-78
2022/06/09 10:21:00;;;;;;;4.53;1.27;;;23.50;98.90;;;;;;5071259;28;20108;-78
2022/06/09 10:23:55;;;;;;;4.18;1.45;;;23.80;95.30;;;;;;5073145;28;20060;-82
2022/06/09 10:26:36;;;;;;;1.65;1.55;;;23.60;94.00;;;;;;5072479;28;20059;-82
2022/06/09 10:29:21;;;;;;;4.38;1.73;;;23.50;96.00;;;;;;5072489;28;20120;-84
2022/06/09 10:31:53;;;;;;;6.20;1.33;;;23.80;97.60;;;;;;5071812;28;20044;-80
2022/06/09 10:34:43;;;;;;;2.70;1.77;;;23.80;96.30;;;;;;5075991;28;20074;-81
2022/06/09 10:37:25;;;;;;;2.28;1.40;;;23.40;94.70;;;;;;5075443;28;20484;-82
2022/06/09 10:40:03;;;;;;;2.70;0.93;;;23.30;93.60;;;;;;5092111;28;20052;-86
2022/06/09 10:42:36;;;;;;;2.70;1.50;;;23.00;94.40;;;;;;5075027;28;20048;-85
2022/06/09 10:45:39;;;;;;;3.90;1.42;;;23.10;97.40;;;;;;5075608;28;20048;-85
2022/06/09 10:57:45;;;;;;;2.80;1.60;;;24.30;95.20;;;;;;5075093;28;20384;-85
2022/06/09 11:00:28;;;;;;;5.30;1.73;;;23.80;93.00;;;;;;5032919;28;20057;-90
2022/06/09 11:02:58;;;;;;;3.45;1.33;;;23.60;95.30;;;;;;5075106;28;20135;-83
2022/06/09 11:05:53;;;;;;;5.40;1.52;;;23.40;97.40;;;;;;5074440;28;20049;-84
2022/06/09 11:08:32;;;;;;;2.35;1.40;;;22.90;94.60;;;;;;5057711;28;20124;-86
2022/06/09 11:11:22;;;;;;;5.60;1.52;;;22.90;95.70;;;;;;5074300;28;20101;-79
2022/06/09 11:13:48;;;;;;;2.47;0.93;;;22.80;93.50;;;;;;5075314;28;20040;-83
2022/06/09 11:16:22;;;;;;;2.17;1.25;;;23.00;96.00;;;;;;5075346;28;20476;-86
2022/06/09 11:18:54;;;;;;;3.67;1.35;;;23.20;95.80;;;;;;5074208;28;20056;-83
2022/06/09 11:21:27;;;;;;;3.20;1.30;;;22.80;93.90;;;;;;5074368;28;20188;-84
2022/06/09 11:24:27;;;;;;;2.13;1.10;;;22.00;94.60;;;;;;5073874;28;20501;-86
2022/06/09 11:27:05;;;;;;;3.35;1.45;;;22.50;93.80;;;;;;5075673;28;20131;-83
2022/06/09 11:29:46;;;;;;;1.13;1.02;;;22.50;95.30;;;;;;5057149;28;20044;-83
2022/06/09 11:32:38;;;;;;;2.15;1.30;;;22.40;95.80;;;;;;5074651;28;20045;-87
2022/06/09 11:35:16;;;;;;;2.15;1.02;;;22.00;94.50;;;;;;5074151;28;20123;-85
2022/06/09 11:38:29;;;;;;;17.73;14.13;;;21.90;96.00;;;;;;5074961;28;20083;-85
2022/06/09 11:41:10;;;;;;;13.63;9.48;;;22.00;96.70;;;;;;5033324;28;20050;-85
2022/06/09 11:43:52;;;;;;;6.22;4.35;;;22.10;94.00;;;;;;5031990;28;20518;-84
2022/06/09 11:46:26;;;;;;;2.35;1.40;;;22.00;95.80;;;;;;5058183;28;20124;-82
2022/06/09 11:48:59;;;;;;;2.47;1.30;;;22.00;95.60;;;;;;5091307;28;20051;-82
2022/06/09 11:51:28;;;;;;;3.33;1.63;;;21.90;97.80;;;;;;5074721;28;20037;-82
2022/06/09 11:54:03;;;;;;;3.03;1.55;;;22.10;96.90;;;;;;5073358;28;20045;-85
2022/06/09 11:56:40;;;;;;;1.58;1.20;;;21.80;95.70;;;;;;5075153;28;20048;-81
2022/06/09 11:59:15;;;;;;;12.50;9.25;;;21.40;94.70;;;;;;5074792;28;20051;-77
2022/06/09 12:02:08;;;;;;;12.68;9.45;;;21.40;95.20;;;;;;5074246;28;20047;-81
2022/06/09 12:05:12;;;;;;;16.02;12.60;;;21.50;95.60;;;;;;5070025;28;20056;-78
2022/06/09 12:08:15;;;;;;;9.73;5.80;;;21.90;95.70;;;;;;5064554;28;20044;-78
2022/06/09 12:11:08;;;;;;;4.18;1.88;;;22.10;95.20;;;;;;5073914;28;20098;-81
2022/06/09 12:13:59;;;;;;;2.38;1.75;;;22.20;94.00;;;;;;5074326;28;20044;-84
2022/06/09 12:16:27;;;;;;;1.55;1.10;;;21.90;94.50;;;;;;5073267;28;20084;-83
2022/06/09 12:19:03;;;;;;;6.13;2.10;;;21.90;94.80;;;;;;5072755;28;20044;-80
2022/06/09 12:21:36;;;;;;;6.25;1.35;;;22.20;97.60;;;;;;5073204;28;20048;-83
2022/06/09 12:24:04;;;;;;;2.45;1.38;;;22.20;94.70;;;;;;5074106;28;20067;-82
2022/06/09 12:26:45;;;;;;;5.57;1.60;;;22.40;95.00;;;;;;5072746;28;20060;-82
2022/06/09 12:29:34;;;;;;;7.18;1.58;;;22.40;95.80;;;;;;5072548;28;20456;-82
2022/06/09 12:32:09;;;;;;;20.63;14.65;;;22.50;95.70;;;;;;5073236;28;20045;-83
2022/06/09 12:34:59;;;;;;;22.05;14.40;;;22.40;94.00;;;;;;5074061;28;20055;-82
2022/06/09 12:37:49;;;;;;;8.50;4.55;;;22.20;93.70;;;;;;5073823;28;20048;-80
2022/06/09 12:40:22;;;;;;;4.20;2.40;;;22.40;94.80;;;;;;5073678;28;20080;-81
2022/06/09 12:42:54;;;;;;;2.72;1.40;;;22.10;94.30;;;;;;5074136;28;20044;-83
2022/06/09 12:45:38;;;;;;;2.13;1.20;;;21.90;94.60;;;;;;5073132;28;20166;-82
2022/06/09 12:48:14;;;;;;;6.35;2.13;;;22.10;95.50;;;;;;5089569;28;20043;-83
2022/06/09 12:50:48;;;;;;;5.25;1.83;;;22.20;96.40;;;;;;5072721;28;20052;-73
2022/06/09 12:53:29;;;;;;;4.00;1.70;;;22.00;95.60;;;;;;5073979;28;20044;-74
2022/06/09 12:56:06;;;;;;;3.22;1.40;;;21.60;95.80;;;;;;5073063;28;20044;-72
2022/06/09 12:58:42;;;;;;;4.15;1.45;;;21.50;96.60;;;;;;5073247;28;20050;-78
2022/06/09 13:01:18;;;;;;;2.03;1.35;;;21.50;95.80;;;;;;5055423;28;20048;-72
2022/06/09 13:03:46;;;;;;;1.85;1.17;;;21.70;97.10;;;;;;5073338;28;20141;-72
2022/06/09 13:06:27;;;;;;;3.47;1.40;;;21.80;96.40;;;;;;5073282;28;20143;-76
2022/06/09 13:08:58;;;;;;;2.65;1.48;;;22.00;96.20;;;;;;5072321;28;20048;-74
2022/06/09 13:14:30;;;;;;;111.35;91.03;;;22.50;95.70;;;;;;5073146;28;20049;-82
2022/06/09 13:17:01;;;;;;;4.32;1.83;;;22.60;95.80;;;;;;5072524;28;20053;-80
2022/06/09 13:19:29;;;;;;;2.13;1.92;;;22.60;94.90;;;;;;5088602;28;20061;-82
2022/06/09 13:21:59;;;;;;;2.97;1.50;;;22.50;96.00;;;;;;5071320;28;20056;-74
2022/06/09 13:24:32;;;;;;;2.03;1.65;;;22.40;94.90;;;;;;5072417;28;20056;-79
2022/06/09 13:27:00;;;;;;;2.70;1.50;;;22.40;95.70;;;;;;5072316;28;20037;-77
2022/06/09 13:29:36;;;;;;;4.72;1.60;;;22.50;96.00;;;;;;5072543;28;20056;-73
2022/06/09 13:32:28;;;;;;;3.75;1.70;;;22.20;94.60;;;;;;5072303;28;20055;-74
2022/06/09 13:34:59;;;;;;;2.00;1.33;;;22.20;94.50;;;;;;5071816;28;20045;-74